LTO weather

Loreto International Airport
Loreto, Baja California Sur, Mexico

Public forecast

Using degrees Celsius for public forecast. Weather courtesy of forecast.io.

Current aviation weather report (METAR) for Loreto International Airport

Report is more than 6 hours old.

Retrieved 2019/10/19 00:41 UTC (8 hours ago):

MMLT 190041Z 04007KT 10SM FEW240 29/21 A2975 RMK 8/005

Aviation forecast (TAF) for Loreto International Airport

Retrieved 2019/10/19 06:10 UTC (3 hours ago):

TAF MMLT 190503Z 1906/2006 00000KT P6SM SKC FM191200 24005KT P6SM SCT030 FM191800 24010KT P6SM SCT240 FM200300 00000KT P6SM SCT040